Pagrindinis puslapis
METAR-TAF:

METAR-TAF

Oro uostai :

Båtsfjord, Norvegija

platuma: 70-38N, ilguma: 029-44E, Aukštis: 10 m

Dabartinis oras

Ataskaita buvo paskelbta 51 minutes, ne 05:50 UTC
Vėjas 7 kt iš Šiaurės Rytų
Temperatūra 8°C
Drėgmė 87%
Slėgis 1018 hPa
Matomumas 10 km arba daugiau
Išsisklaidę debesys ne aukštis 1700 ft
Su prošvaistėmis ne aukštis 2400 ft

METAR: ENBS 130550Z 05007KT 9999 SCT017 BKN024 08/06 Q1018

Laikas: 08:41 (06:41 UTC)


TAF: trūkstamas

Orai ataskaitas ir orų prognozės (METAR, TAF).

turimą stotys yra geltonos ir raudonos taškus žemėlapyje.

Perkelti pele per norėdami pamatyti stoties vardą.

Tada spustelėkite, norėdami matyti oro stebėjimo ir prognozės.

Norėdami pakeisti žemėlapį: spustelėkite ant žalios mygtukų su juodo kryžiaus žemyn,; žalią mygtuką su brūkšneliu, jei norite nutolinti; arba žalių rodyklių gretimoms žemėlapius.


METAR-TAF: